sensor_id;sensor_type;location;lat;lon;timestamp;P1;durP1;ratioP1;P2;durP2;ratioP2
53108;SDS011;39007;53.090;6.074;2023-09-12T00:00:21;39.38;;;30.17;;
53108;SDS011;39007;53.090;6.074;2023-09-12T00:02:48;37.70;;;31.27;;
53108;SDS011;39007;53.090;6.074;2023-09-12T00:05:14;38.70;;;32.38;;
53108;SDS011;39007;53.090;6.074;2023-09-12T00:07:40;36.00;;;29.95;;
53108;SDS011;39007;53.090;6.074;2023-09-12T00:10:06;35.83;;;29.85;;
53108;SDS011;39007;53.090;6.074;2023-09-12T00:12:32;35.50;;;29.65;;
53108;SDS011;39007;53.090;6.074;2023-09-12T00:14:58;33.50;;;27.02;;
53108;SDS011;39007;53.090;6.074;2023-09-12T00:17:25;34.17;;;28.10;;
53108;SDS011;39007;53.090;6.074;2023-09-12T00:19:52;37.58;;;28.80;;
53108;SDS011;39007;53.090;6.074;2023-09-12T00:22:18;33.92;;;27.75;;
53108;SDS011;39007;53.090;6.074;2023-09-12T00:24:44;33.80;;;28.83;;
53108;SDS011;39007;53.090;6.074;2023-09-12T00:27:10;35.15;;;29.27;;
53108;SDS011;39007;53.090;6.074;2023-09-12T00:29:36;35.25;;;29.40;;
53108;SDS011;39007;53.090;6.074;2023-09-12T00:32:02;36.85;;;28.95;;
53108;SDS011;39007;53.090;6.074;2023-09-12T00:34:28;32.97;;;27.23;;
53108;SDS011;39007;53.090;6.074;2023-09-12T00:36:54;35.65;;;27.88;;
53108;SDS011;39007;53.090;6.074;2023-09-12T00:39:20;39.55;;;29.42;;
53108;SDS011;39007;53.090;6.074;2023-09-12T00:41:46;34.28;;;27.35;;
53108;SDS011;39007;53.090;6.074;2023-09-12T00:44:12;34.97;;;29.60;;
53108;SDS011;39007;53.090;6.074;2023-09-12T00:46:38;34.83;;;26.95;;
53108;SDS011;39007;53.090;6.074;2023-09-12T00:49:05;35.75;;;27.27;;
53108;SDS011;39007;53.090;6.074;2023-09-12T00:51:32;31.17;;;26.58;;
53108;SDS011;39007;53.090;6.074;2023-09-12T00:53:59;31.67;;;26.90;;
53108;SDS011;39007;53.090;6.074;2023-09-12T00:56:25;32.65;;;26.40;;
53108;SDS011;39007;53.090;6.074;2023-09-12T00:58:51;36.55;;;28.02;;
53108;SDS011;39007;53.090;6.074;2023-09-12T01:01:18;36.05;;;27.45;;
53108;SDS011;39007;53.090;6.074;2023-09-12T01:03:45;32.58;;;26.88;;
53108;SDS011;39007;53.090;6.074;2023-09-12T01:06:11;35.25;;;27.73;;
53108;SDS011;39007;53.090;6.074;2023-09-12T01:08:38;33.85;;;28.48;;
53108;SDS011;39007;53.090;6.074;2023-09-12T01:11:04;37.17;;;29.48;;
53108;SDS011;39007;53.090;6.074;2023-09-12T01:13:30;37.80;;;27.92;;
53108;SDS011;39007;53.090;6.074;2023-09-12T01:15:57;34.08;;;28.08;;
53108;SDS011;39007;53.090;6.074;2023-09-12T01:18:23;35.67;;;28.30;;
53108;SDS011;39007;53.090;6.074;2023-09-12T01:20:58;32.17;;;27.90;;
53108;SDS011;39007;53.090;6.074;2023-09-12T01:28:30;33.35;;;26.90;;
53108;SDS011;39007;53.090;6.074;2023-09-12T01:31:00;33.83;;;26.38;;
53108;SDS011;39007;53.090;6.074;2023-09-12T01:33:27;31.58;;;26.80;;
53108;SDS011;39007;53.090;6.074;2023-09-12T01:35:54;35.10;;;27.00;;
53108;SDS011;39007;53.090;6.074;2023-09-12T01:38:20;30.08;;;24.65;;
53108;SDS011;39007;53.090;6.074;2023-09-12T01:40:50;30.25;;;25.13;;
53108;SDS011;39007;53.090;6.074;2023-09-12T01:43:17;29.25;;;25.38;;
53108;SDS011;39007;53.090;6.074;2023-09-12T01:45:50;26.27;;;23.42;;
53108;SDS011;39007;53.090;6.074;2023-09-12T01:48:25;25.55;;;22.58;;
53108;SDS011;39007;53.090;6.074;2023-09-12T01:50:52;33.08;;;23.90;;
53108;SDS011;39007;53.090;6.074;2023-09-12T01:53:19;28.48;;;22.77;;
53108;SDS011;39007;53.090;6.074;2023-09-12T01:55:45;23.85;;;21.23;;
53108;SDS011;39007;53.090;6.074;2023-09-12T01:58:12;24.83;;;21.27;;
53108;SDS011;39007;53.090;6.074;2023-09-12T02:00:42;27.38;;;21.98;;
53108;SDS011;39007;53.090;6.074;2023-09-12T02:03:08;122.72;;;26.45;;
53108;SDS011;39007;53.090;6.074;2023-09-12T02:05:34;371.27;;;28.02;;
53108;SDS011;39007;53.090;6.074;2023-09-12T02:08:02;22.60;;;18.15;;
53108;SDS011;39007;53.090;6.074;2023-09-12T02:10:30;22.10;;;19.70;;
53108;SDS011;39007;53.090;6.074;2023-09-12T02:12:57;23.40;;;20.15;;
53108;SDS011;39007;53.090;6.074;2023-09-12T02:15:23;28.83;;;22.92;;
53108;SDS011;39007;53.090;6.074;2023-09-12T02:17:49;24.15;;;18.05;;
53108;SDS011;39007;53.090;6.074;2023-09-12T02:20:15;25.00;;;20.83;;
53108;SDS011;39007;53.090;6.074;2023-09-12T02:22:41;21.75;;;16.65;;
53108;SDS011;39007;53.090;6.074;2023-09-12T02:25:07;13.95;;;12.38;;
53108;SDS011;39007;53.090;6.074;2023-09-12T02:27:34;13.55;;;12.15;;
53108;SDS011;39007;53.090;6.074;2023-09-12T02:30:00;16.13;;;13.85;;
53108;SDS011;39007;53.090;6.074;2023-09-12T02:32:26;15.98;;;14.00;;
53108;SDS011;39007;53.090;6.074;2023-09-12T02:34:52;24.75;;;18.48;;
53108;SDS011;39007;53.090;6.074;2023-09-12T02:37:18;84.65;;;19.20;;
53108;SDS011;39007;53.090;6.074;2023-09-12T02:39:44;18.95;;;16.88;;
53108;SDS011;39007;53.090;6.074;2023-09-12T02:42:10;21.30;;;18.10;;
53108;SDS011;39007;53.090;6.074;2023-09-12T02:44:36;48.45;;;16.52;;
53108;SDS011;39007;53.090;6.074;2023-09-12T02:47:03;23.08;;;14.00;;
53108;SDS011;39007;53.090;6.074;2023-09-12T02:49:29;30.83;;;15.52;;
53108;SDS011;39007;53.090;6.074;2023-09-12T02:51:55;105.63;;;16.15;;
53108;SDS011;39007;53.090;6.074;2023-09-12T02:54:21;17.60;;;13.80;;
53108;SDS011;39007;53.090;6.074;2023-09-12T02:56:47;267.00;;;15.13;;
53108;SDS011;39007;53.090;6.074;2023-09-12T02:59:13;129.75;;;15.95;;
53108;SDS011;39007;53.090;6.074;2023-09-12T03:01:39;91.05;;;16.23;;
53108;SDS011;39007;53.090;6.074;2023-09-12T03:04:06;32.83;;;16.45;;
53108;SDS011;39007;53.090;6.074;2023-09-12T03:06:32;81.78;;;18.38;;
53108;SDS011;39007;53.090;6.074;2023-09-12T03:08:58;61.20;;;18.23;;
53108;SDS011;39007;53.090;6.074;2023-09-12T03:11:27;135.27;;;20.35;;
53108;SDS011;39007;53.090;6.074;2023-09-12T03:13:54;131.70;;;21.95;;
53108;SDS011;39007;53.090;6.074;2023-09-12T03:16:20;61.88;;;23.17;;
53108;SDS011;39007;53.090;6.074;2023-09-12T03:18:49;94.45;;;25.45;;
53108;SDS011;39007;53.090;6.074;2023-09-12T03:21:15;127.93;;;26.88;;
53108;SDS011;39007;53.090;6.074;2023-09-12T03:23:41;87.40;;;26.25;;
53108;SDS011;39007;53.090;6.074;2023-09-12T03:26:07;165.98;;;26.83;;
53108;SDS011;39007;53.090;6.074;2023-09-12T03:28:33;90.53;;;26.05;;
53108;SDS011;39007;53.090;6.074;2023-09-12T03:31:09;164.23;;;25.60;;
53108;SDS011;39007;53.090;6.074;2023-09-12T03:33:39;105.80;;;24.45;;
53108;SDS011;39007;53.090;6.074;2023-09-12T03:36:05;83.32;;;24.63;;
53108;SDS011;39007;53.090;6.074;2023-09-12T03:38:32;35.42;;;24.67;;
53108;SDS011;39007;53.090;6.074;2023-09-12T03:40:58;100.75;;;25.95;;
53108;SDS011;39007;53.090;6.074;2023-09-12T03:43:24;100.05;;;24.77;;
53108;SDS011;39007;53.090;6.074;2023-09-12T03:45:50;39.03;;;25.23;;
53108;SDS011;39007;53.090;6.074;2023-09-12T03:48:16;115.28;;;25.65;;
53108;SDS011;39007;53.090;6.074;2023-09-12T03:50:43;95.70;;;25.38;;
53108;SDS011;39007;53.090;6.074;2023-09-12T03:53:09;32.90;;;25.73;;
53108;SDS011;39007;53.090;6.074;2023-09-12T03:55:35;65.20;;;27.63;;
53108;SDS011;39007;53.090;6.074;2023-09-12T03:58:01;69.75;;;26.92;;
53108;SDS011;39007;53.090;6.074;2023-09-12T04:00:27;39.63;;;27.23;;
53108;SDS011;39007;53.090;6.074;2023-09-12T04:02:53;36.15;;;28.40;;
53108;SDS011;39007;53.090;6.074;2023-09-12T04:05:20;50.20;;;30.30;;
53108;SDS011;39007;53.090;6.074;2023-09-12T04:07:46;90.90;;;31.85;;
53108;SDS011;39007;53.090;6.074;2023-09-12T04:10:12;105.88;;;31.92;;
53108;SDS011;39007;53.090;6.074;2023-09-12T04:12:38;258.85;;;31.90;;
53108;SDS011;39007;53.090;6.074;2023-09-12T04:15:05;201.52;;;30.92;;
53108;SDS011;39007;53.090;6.074;2023-09-12T04:17:31;66.15;;;29.60;;
53108;SDS011;39007;53.090;6.074;2023-09-12T04:19:57;44.10;;;29.25;;
53108;SDS011;39007;53.090;6.074;2023-09-12T04:22:23;36.25;;;28.75;;
53108;SDS011;39007;53.090;6.074;2023-09-12T04:24:49;67.63;;;31.17;;
53108;SDS011;39007;53.090;6.074;2023-09-12T04:27:15;40.47;;;30.77;;
53108;SDS011;39007;53.090;6.074;2023-09-12T04:29:41;157.82;;;31.83;;
53108;SDS011;39007;53.090;6.074;2023-09-12T04:32:07;45.20;;;29.10;;
53108;SDS011;39007;53.090;6.074;2023-09-12T04:34:33;361.40;;;37.45;;
53108;SDS011;39007;53.090;6.074;2023-09-12T04:37:00;140.98;;;30.25;;
53108;SDS011;39007;53.090;6.074;2023-09-12T04:39:27;123.35;;;31.35;;
53108;SDS011;39007;53.090;6.074;2023-09-12T04:41:53;319.58;;;33.25;;
53108;SDS011;39007;53.090;6.074;2023-09-12T04:44:19;172.63;;;31.90;;
53108;SDS011;39007;53.090;6.074;2023-09-12T04:46:45;165.43;;;34.35;;
53108;SDS011;39007;53.090;6.074;2023-09-12T04:49:12;85.05;;;32.25;;
53108;SDS011;39007;53.090;6.074;2023-09-12T04:51:38;85.68;;;31.90;;
53108;SDS011;39007;53.090;6.074;2023-09-12T04:54:04;129.57;;;32.95;;
53108;SDS011;39007;53.090;6.074;2023-09-12T04:56:30;135.48;;;34.15;;
53108;SDS011;39007;53.090;6.074;2023-09-12T04:58:56;174.40;;;35.97;;
53108;SDS011;39007;53.090;6.074;2023-09-12T05:01:22;215.68;;;36.97;;
53108;SDS011;39007;53.090;6.074;2023-09-12T05:03:50;160.65;;;34.60;;
53108;SDS011;39007;53.090;6.074;2023-09-12T05:06:16;156.73;;;35.63;;
53108;SDS011;39007;53.090;6.074;2023-09-12T05:08:42;69.25;;;34.42;;
53108;SDS011;39007;53.090;6.074;2023-09-12T05:11:08;84.10;;;33.13;;
53108;SDS011;39007;53.090;6.074;2023-09-12T05:13:34;81.35;;;33.25;;
53108;SDS011;39007;53.090;6.074;2023-09-12T05:16:00;161.32;;;37.13;;
53108;SDS011;39007;53.090;6.074;2023-09-12T05:18:27;78.47;;;36.17;;
53108;SDS011;39007;53.090;6.074;2023-09-12T05:20:53;43.78;;;32.17;;
53108;SDS011;39007;53.090;6.074;2023-09-12T05:23:19;60.13;;;35.45;;
53108;SDS011;39007;53.090;6.074;2023-09-12T05:25:45;50.65;;;34.97;;
53108;SDS011;39007;53.090;6.074;2023-09-12T05:28:11;47.17;;;33.97;;
53108;SDS011;39007;53.090;6.074;2023-09-12T05:30:41;43.35;;;33.20;;
53108;SDS011;39007;53.090;6.074;2023-09-12T05:33:07;45.53;;;34.67;;
53108;SDS011;39007;53.090;6.074;2023-09-12T05:35:33;40.88;;;33.08;;
53108;SDS011;39007;53.090;6.074;2023-09-12T05:37:59;40.03;;;31.50;;
53108;SDS011;39007;53.090;6.074;2023-09-12T05:40:25;37.10;;;31.65;;
53108;SDS011;39007;53.090;6.074;2023-09-12T05:42:51;34.95;;;29.88;;
53108;SDS011;39007;53.090;6.074;2023-09-12T05:45:18;46.20;;;33.10;;
53108;SDS011;39007;53.090;6.074;2023-09-12T05:47:44;54.80;;;32.50;;
53108;SDS011;39007;53.090;6.074;2023-09-12T05:50:10;67.28;;;35.22;;
53108;SDS011;39007;53.090;6.074;2023-09-12T05:52:36;63.85;;;34.97;;
53108;SDS011;39007;53.090;6.074;2023-09-12T05:55:03;104.55;;;37.00;;
53108;SDS011;39007;53.090;6.074;2023-09-12T05:57:30;73.70;;;33.67;;
53108;SDS011;39007;53.090;6.074;2023-09-12T05:59:58;257.25;;;40.80;;
53108;SDS011;39007;53.090;6.074;2023-09-12T06:02:25;301.05;;;40.45;;
53108;SDS011;39007;53.090;6.074;2023-09-12T06:04:51;182.25;;;37.05;;
53108;SDS011;39007;53.090;6.074;2023-09-12T06:07:17;166.38;;;36.30;;
53108;SDS011;39007;53.090;6.074;2023-09-12T06:09:43;233.13;;;39.42;;
53108;SDS011;39007;53.090;6.074;2023-09-12T06:12:09;146.82;;;37.17;;
53108;SDS011;39007;53.090;6.074;2023-09-12T06:14:35;185.00;;;39.30;;
53108;SDS011;39007;53.090;6.074;2023-09-12T06:17:01;99.47;;;37.75;;
53108;SDS011;39007;53.090;6.074;2023-09-12T06:19:28;227.05;;;40.83;;
53108;SDS011;39007;53.090;6.074;2023-09-12T06:21:54;121.32;;;39.60;;
53108;SDS011;39007;53.090;6.074;2023-09-12T06:24:20;138.27;;;40.75;;
53108;SDS011;39007;53.090;6.074;2023-09-12T06:26:47;83.35;;;41.67;;
53108;SDS011;39007;53.090;6.074;2023-09-12T06:29:13;70.28;;;40.05;;
53108;SDS011;39007;53.090;6.074;2023-09-12T06:31:39;94.25;;;44.33;;
53108;SDS011;39007;53.090;6.074;2023-09-12T06:34:08;110.88;;;43.70;;
53108;SDS011;39007;53.090;6.074;2023-09-12T06:36:34;122.30;;;45.08;;
53108;SDS011;39007;53.090;6.074;2023-09-12T06:39:00;212.15;;;46.53;;
53108;SDS011;39007;53.090;6.074;2023-09-12T06:41:28;145.82;;;46.33;;
53108;SDS011;39007;53.090;6.074;2023-09-12T06:43:54;101.78;;;47.30;;
53108;SDS011;39007;53.090;6.074;2023-09-12T06:46:22;135.60;;;48.33;;
53108;SDS011;39007;53.090;6.074;2023-09-12T06:48:48;104.00;;;48.72;;
53108;SDS011;39007;53.090;6.074;2023-09-12T06:51:15;131.20;;;50.08;;
53108;SDS011;39007;53.090;6.074;2023-09-12T06:53:41;101.18;;;48.95;;
53108;SDS011;39007;53.090;6.074;2023-09-12T06:56:07;91.40;;;50.60;;
53108;SDS011;39007;53.090;6.074;2023-09-12T06:58:34;80.70;;;48.10;;
53108;SDS011;39007;53.090;6.074;2023-09-12T07:01:03;77.88;;;48.30;;
53108;SDS011;39007;53.090;6.074;2023-09-12T07:03:30;99.72;;;53.22;;
53108;SDS011;39007;53.090;6.074;2023-09-12T07:05:56;90.57;;;52.47;;
53108;SDS011;39007;53.090;6.074;2023-09-12T07:08:22;102.10;;;54.25;;
53108;SDS011;39007;53.090;6.074;2023-09-12T07:10:50;77.05;;;48.78;;
53108;SDS011;39007;53.090;6.074;2023-09-12T07:13:16;87.65;;;50.35;;
53108;SDS011;39007;53.090;6.074;2023-09-12T07:15:42;90.18;;;51.00;;
53108;SDS011;39007;53.090;6.074;2023-09-12T07:18:08;99.13;;;52.75;;
53108;SDS011;39007;53.090;6.074;2023-09-12T07:20:34;90.03;;;52.38;;
53108;SDS011;39007;53.090;6.074;2023-09-12T07:23:01;92.22;;;50.75;;
53108;SDS011;39007;53.090;6.074;2023-09-12T07:25:27;108.32;;;51.53;;
53108;SDS011;39007;53.090;6.074;2023-09-12T07:27:53;109.25;;;53.25;;
53108;SDS011;39007;53.090;6.074;2023-09-12T07:30:19;81.15;;;49.10;;
53108;SDS011;39007;53.090;6.074;2023-09-12T07:32:45;92.65;;;51.58;;
53108;SDS011;39007;53.090;6.074;2023-09-12T07:35:11;87.15;;;50.08;;
53108;SDS011;39007;53.090;6.074;2023-09-12T07:37:37;93.80;;;53.53;;
53108;SDS011;39007;53.090;6.074;2023-09-12T07:40:03;80.90;;;49.15;;
53108;SDS011;39007;53.090;6.074;2023-09-12T07:42:34;73.97;;;45.63;;
53108;SDS011;39007;53.090;6.074;2023-09-12T07:45:02;83.25;;;50.47;;
53108;SDS011;39007;53.090;6.074;2023-09-12T07:47:28;93.90;;;51.95;;
53108;SDS011;39007;53.090;6.074;2023-09-12T07:49:54;82.47;;;49.35;;
53108;SDS011;39007;53.090;6.074;2023-09-12T07:52:21;105.00;;;56.40;;
53108;SDS011;39007;53.090;6.074;2023-09-12T07:54:48;84.95;;;52.35;;
53108;SDS011;39007;53.090;6.074;2023-09-12T07:57:17;80.78;;;48.28;;
53108;SDS011;39007;53.090;6.074;2023-09-12T07:59:43;89.38;;;51.58;;
53108;SDS011;39007;53.090;6.074;2023-09-12T08:02:09;86.25;;;50.45;;
53108;SDS011;39007;53.090;6.074;2023-09-12T08:04:37;88.57;;;51.47;;
53108;SDS011;39007;53.090;6.074;2023-09-12T08:07:03;79.38;;;49.10;;
53108;SDS011;39007;53.090;6.074;2023-09-12T08:09:47;73.80;;;48.28;;
53108;SDS011;39007;53.090;6.074;2023-09-12T08:12:13;79.80;;;48.63;;
53108;SDS011;39007;53.090;6.074;2023-09-12T08:14:39;76.18;;;48.03;;
53108;SDS011;39007;53.090;6.074;2023-09-12T08:17:05;78.15;;;49.05;;
53108;SDS011;39007;53.090;6.074;2023-09-12T08:19:31;78.03;;;47.42;;
53108;SDS011;39007;53.090;6.074;2023-09-12T08:21:57;71.28;;;45.28;;
53108;SDS011;39007;53.090;6.074;2023-09-12T08:24:23;82.85;;;49.75;;
53108;SDS011;39007;53.090;6.074;2023-09-12T08:26:49;86.50;;;52.08;;
53108;SDS011;39007;53.090;6.074;2023-09-12T08:29:15;72.38;;;45.63;;
53108;SDS011;39007;53.090;6.074;2023-09-12T08:31:41;74.90;;;47.58;;
53108;SDS011;39007;53.090;6.074;2023-09-12T08:34:10;82.43;;;51.72;;
53108;SDS011;39007;53.090;6.074;2023-09-12T08:36:36;73.32;;;45.63;;
53108;SDS011;39007;53.090;6.074;2023-09-12T08:39:02;80.18;;;49.15;;
53108;SDS011;39007;53.090;6.074;2023-09-12T08:41:29;72.53;;;46.72;;
53108;SDS011;39007;53.090;6.074;2023-09-12T08:43:55;78.93;;;48.88;;
53108;SDS011;39007;53.090;6.074;2023-09-12T08:46:21;69.68;;;44.10;;
53108;SDS011;39007;53.090;6.074;2023-09-12T08:48:49;60.65;;;42.50;;
53108;SDS011;39007;53.090;6.074;2023-09-12T08:51:15;74.53;;;47.45;;
53108;SDS011;39007;53.090;6.074;2023-09-12T08:53:41;71.63;;;46.55;;
53108;SDS011;39007;53.090;6.074;2023-09-12T08:56:08;74.15;;;47.38;;
53108;SDS011;39007;53.090;6.074;2023-09-12T08:58:35;66.35;;;44.50;;
53108;SDS011;39007;53.090;6.074;2023-09-12T09:01:01;73.78;;;48.80;;
53108;SDS011;39007;53.090;6.074;2023-09-12T09:03:28;69.57;;;47.00;;
53108;SDS011;39007;53.090;6.074;2023-09-12T09:05:54;80.30;;;48.72;;
53108;SDS011;39007;53.090;6.074;2023-09-12T09:08:21;76.10;;;46.55;;
53108;SDS011;39007;53.090;6.074;2023-09-12T09:10:54;72.28;;;46.58;;
53108;SDS011;39007;53.090;6.074;2023-09-12T09:13:21;76.22;;;48.10;;
53108;SDS011;39007;53.090;6.074;2023-09-12T09:15:47;75.10;;;48.50;;
53108;SDS011;39007;53.090;6.074;2023-09-12T09:18:13;60.42;;;42.33;;
53108;SDS011;39007;53.090;6.074;2023-09-12T09:20:39;68.50;;;45.28;;
53108;SDS011;39007;53.090;6.074;2023-09-12T09:23:06;65.00;;;43.50;;
53108;SDS011;39007;53.090;6.074;2023-09-12T09:25:41;66.38;;;41.83;;
53108;SDS011;39007;53.090;6.074;2023-09-12T09:28:20;64.75;;;44.13;;
53108;SDS011;39007;53.090;6.074;2023-09-12T09:30:47;68.18;;;45.50;;
53108;SDS011;39007;53.090;6.074;2023-09-12T09:33:13;60.10;;;41.53;;
53108;SDS011;39007;53.090;6.074;2023-09-12T09:35:49;57.20;;;40.05;;
53108;SDS011;39007;53.090;6.074;2023-09-12T09:38:18;53.08;;;38.13;;
53108;SDS011;39007;53.090;6.074;2023-09-12T09:40:44;52.67;;;37.38;;
53108;SDS011;39007;53.090;6.074;2023-09-12T09:43:11;52.38;;;36.33;;
53108;SDS011;39007;53.090;6.074;2023-09-12T09:45:43;57.45;;;38.03;;
53108;SDS011;39007;53.090;6.074;2023-09-12T09:48:10;50.40;;;36.50;;
53108;SDS011;39007;53.090;6.074;2023-09-12T09:50:36;49.78;;;34.65;;
53108;SDS011;39007;53.090;6.074;2023-09-12T09:53:02;53.13;;;35.50;;
53108;SDS011;39007;53.090;6.074;2023-09-12T09:55:30;43.03;;;32.03;;
53108;SDS011;39007;53.090;6.074;2023-09-12T09:57:57;45.45;;;31.75;;
53108;SDS011;39007;53.090;6.074;2023-09-12T10:00:23;43.95;;;31.23;;
53108;SDS011;39007;53.090;6.074;2023-09-12T10:02:50;42.03;;;30.85;;
53108;SDS011;39007;53.090;6.074;2023-09-12T10:05:19;35.35;;;26.83;;
53108;SDS011;39007;53.090;6.074;2023-09-12T10:07:47;41.30;;;27.15;;
53108;SDS011;39007;53.090;6.074;2023-09-12T10:10:14;30.10;;;21.98;;
53108;SDS011;39007;53.090;6.074;2023-09-12T10:12:49;25.65;;;20.85;;
53108;SDS011;39007;53.090;6.074;2023-09-12T10:15:17;28.25;;;19.70;;
53108;SDS011;39007;53.090;6.074;2023-09-12T10:17:45;25.85;;;17.88;;
53108;SDS011;39007;53.090;6.074;2023-09-12T10:20:15;25.27;;;17.60;;
53108;SDS011;39007;53.090;6.074;2023-09-12T10:25:43;29.08;;;18.20;;
53108;SDS011;39007;53.090;6.074;2023-09-12T10:28:09;26.02;;;18.08;;
53108;SDS011;39007;53.090;6.074;2023-09-12T10:30:36;24.10;;;18.27;;
53108;SDS011;39007;53.090;6.074;2023-09-12T10:33:03;29.67;;;20.65;;
53108;SDS011;39007;53.090;6.074;2023-09-12T10:35:30;31.27;;;20.92;;
53108;SDS011;39007;53.090;6.074;2023-09-12T10:37:59;28.70;;;17.08;;
53108;SDS011;39007;53.090;6.074;2023-09-12T10:40:29;24.42;;;18.02;;
53108;SDS011;39007;53.090;6.074;2023-09-12T10:42:55;30.08;;;18.70;;
53108;SDS011;39007;53.090;6.074;2023-09-12T10:45:22;25.63;;;18.73;;
53108;SDS011;39007;53.090;6.074;2023-09-12T10:47:48;23.83;;;15.43;;
53108;SDS011;39007;53.090;6.074;2023-09-12T10:50:14;22.92;;;15.52;;
53108;SDS011;39007;53.090;6.074;2023-09-12T10:52:40;23.02;;;15.63;;
53108;SDS011;39007;53.090;6.074;2023-09-12T10:55:07;21.73;;;14.45;;
53108;SDS011;39007;53.090;6.074;2023-09-12T10:57:33;21.10;;;14.07;;
53108;SDS011;39007;53.090;6.074;2023-09-12T11:04:55;18.17;;;13.93;;
53108;SDS011;39007;53.090;6.074;2023-09-12T11:12:44;20.70;;;13.30;;
53108;SDS011;39007;53.090;6.074;2023-09-12T11:15:10;32.35;;;14.70;;
53108;SDS011;39007;53.090;6.074;2023-09-12T11:17:37;22.40;;;14.52;;
53108;SDS011;39007;53.090;6.074;2023-09-12T11:20:03;22.77;;;13.13;;
53108;SDS011;39007;53.090;6.074;2023-09-12T11:22:36;19.10;;;13.55;;
53108;SDS011;39007;53.090;6.074;2023-09-12T11:25:04;19.10;;;12.35;;
53108;SDS011;39007;53.090;6.074;2023-09-12T11:27:32;18.35;;;13.00;;
53108;SDS011;39007;53.090;6.074;2023-09-12T11:30:04;21.10;;;12.77;;
53108;SDS011;39007;53.090;6.074;2023-09-12T11:32:32;19.38;;;13.45;;
53108;SDS011;39007;53.090;6.074;2023-09-12T11:34:59;20.30;;;11.63;;
53108;SDS011;39007;53.090;6.074;2023-09-12T11:37:25;17.63;;;12.13;;
53108;SDS011;39007;53.090;6.074;2023-09-12T11:39:53;16.38;;;11.55;;
53108;SDS011;39007;53.090;6.074;2023-09-12T11:42:20;18.83;;;11.00;;
53108;SDS011;39007;53.090;6.074;2023-09-12T11:44:50;15.75;;;9.55;;
53108;SDS011;39007;53.090;6.074;2023-09-12T11:47:16;14.57;;;9.48;;
53108;SDS011;39007;53.090;6.074;2023-09-12T11:49:43;17.35;;;10.35;;
53108;SDS011;39007;53.090;6.074;2023-09-12T11:52:13;20.98;;;10.77;;
53108;SDS011;39007;53.090;6.074;2023-09-12T11:54:41;21.65;;;12.30;;
53108;SDS011;39007;53.090;6.074;2023-09-12T11:57:08;22.65;;;12.98;;
53108;SDS011;39007;53.090;6.074;2023-09-12T11:59:42;17.58;;;11.85;;
53108;SDS011;39007;53.090;6.074;2023-09-12T12:02:13;18.83;;;12.02;;
53108;SDS011;39007;53.090;6.074;2023-09-12T12:04:39;15.57;;;10.73;;
53108;SDS011;39007;53.090;6.074;2023-09-12T12:07:05;17.23;;;11.50;;
53108;SDS011;39007;53.090;6.074;2023-09-12T12:09:32;18.30;;;12.10;;
53108;SDS011;39007;53.090;6.074;2023-09-12T12:12:03;18.60;;;11.07;;
53108;SDS011;39007;53.090;6.074;2023-09-12T12:14:30;19.17;;;11.35;;
53108;SDS011;39007;53.090;6.074;2023-09-12T12:17:05;17.50;;;9.95;;
53108;SDS011;39007;53.090;6.074;2023-09-12T12:19:32;15.60;;;10.07;;
53108;SDS011;39007;53.090;6.074;2023-09-12T12:21:58;16.73;;;10.57;;
53108;SDS011;39007;53.090;6.074;2023-09-12T12:24:24;17.90;;;11.13;;
53108;SDS011;39007;53.090;6.074;2023-09-12T12:26:50;19.50;;;12.32;;
53108;SDS011;39007;53.090;6.074;2023-09-12T12:29:18;16.70;;;9.77;;
53108;SDS011;39007;53.090;6.074;2023-09-12T12:31:44;11.88;;;8.70;;
53108;SDS011;39007;53.090;6.074;2023-09-12T12:34:10;13.00;;;8.25;;
53108;SDS011;39007;53.090;6.074;2023-09-12T12:36:42;13.43;;;8.90;;
53108;SDS011;39007;53.090;6.074;2023-09-12T12:39:10;15.93;;;9.68;;
53108;SDS011;39007;53.090;6.074;2023-09-12T12:41:37;15.98;;;9.32;;
53108;SDS011;39007;53.090;6.074;2023-09-12T12:44:03;11.75;;;8.07;;
53108;SDS011;39007;53.090;6.074;2023-09-12T12:46:30;15.68;;;10.48;;
53108;SDS011;39007;53.090;6.074;2023-09-12T12:48:56;16.90;;;10.48;;
53108;SDS011;39007;53.090;6.074;2023-09-12T12:51:23;15.90;;;10.48;;
53108;SDS011;39007;53.090;6.074;2023-09-12T12:53:50;14.15;;;9.05;;
53108;SDS011;39007;53.090;6.074;2023-09-12T12:56:17;12.77;;;8.52;;
53108;SDS011;39007;53.090;6.074;2023-09-12T12:58:56;12.63;;;8.05;;
53108;SDS011;39007;53.090;6.074;2023-09-12T13:01:24;14.52;;;8.10;;
53108;SDS011;39007;53.090;6.074;2023-09-12T13:03:50;12.77;;;7.95;;
53108;SDS011;39007;53.090;6.074;2023-09-12T13:06:18;10.88;;;7.40;;
53108;SDS011;39007;53.090;6.074;2023-09-12T13:08:45;9.15;;;5.93;;
53108;SDS011;39007;53.090;6.074;2023-09-12T13:11:12;9.35;;;6.30;;
53108;SDS011;39007;53.090;6.074;2023-09-12T13:13:39;11.00;;;7.38;;
53108;SDS011;39007;53.090;6.074;2023-09-12T13:16:05;12.85;;;7.38;;
53108;SDS011;39007;53.090;6.074;2023-09-12T13:18:34;10.85;;;8.43;;
53108;SDS011;39007;53.090;6.074;2023-09-12T13:21:01;9.88;;;7.57;;
53108;SDS011;39007;53.090;6.074;2023-09-12T13:23:27;12.43;;;7.63;;
53108;SDS011;39007;53.090;6.074;2023-09-12T13:25:54;13.38;;;7.63;;
53108;SDS011;39007;53.090;6.074;2023-09-12T13:28:20;10.82;;;7.15;;
53108;SDS011;39007;53.090;6.074;2023-09-12T13:30:48;9.95;;;6.70;;
53108;SDS011;39007;53.090;6.074;2023-09-12T13:33:14;13.52;;;6.47;;
53108;SDS011;39007;53.090;6.074;2023-09-12T13:35:41;11.80;;;6.35;;
53108;SDS011;39007;53.090;6.074;2023-09-12T13:38:07;8.50;;;5.60;;
53108;SDS011;39007;53.090;6.074;2023-09-12T13:40:37;9.88;;;5.80;;
53108;SDS011;39007;53.090;6.074;2023-09-12T13:43:03;7.68;;;5.32;;
53108;SDS011;39007;53.090;6.074;2023-09-12T13:45:30;7.97;;;5.03;;
53108;SDS011;39007;53.090;6.074;2023-09-12T13:47:57;7.78;;;5.43;;
53108;SDS011;39007;53.090;6.074;2023-09-12T13:50:23;8.27;;;5.05;;
53108;SDS011;39007;53.090;6.074;2023-09-12T13:52:49;7.35;;;4.90;;
53108;SDS011;39007;53.090;6.074;2023-09-12T13:55:15;9.40;;;5.32;;
53108;SDS011;39007;53.090;6.074;2023-09-12T13:57:42;10.23;;;5.70;;
53108;SDS011;39007;53.090;6.074;2023-09-12T14:00:08;8.32;;;4.60;;
53108;SDS011;39007;53.090;6.074;2023-09-12T14:02:34;10.25;;;4.95;;
53108;SDS011;39007;53.090;6.074;2023-09-12T14:05:00;6.80;;;4.43;;
53108;SDS011;39007;53.090;6.074;2023-09-12T14:07:26;6.95;;;4.50;;
53108;SDS011;39007;53.090;6.074;2023-09-12T14:09:52;8.63;;;4.70;;
53108;SDS011;39007;53.090;6.074;2023-09-12T14:12:23;10.95;;;4.60;;
53108;SDS011;39007;53.090;6.074;2023-09-12T14:14:52;8.40;;;4.40;;
53108;SDS011;39007;53.090;6.074;2023-09-12T14:17:18;7.35;;;4.25;;
53108;SDS011;39007;53.090;6.074;2023-09-12T14:19:45;9.13;;;4.95;;
53108;SDS011;39007;53.090;6.074;2023-09-12T14:22:11;9.55;;;5.20;;
53108;SDS011;39007;53.090;6.074;2023-09-12T14:24:37;7.82;;;5.10;;
53108;SDS011;39007;53.090;6.074;2023-09-12T14:27:04;10.60;;;5.50;;
53108;SDS011;39007;53.090;6.074;2023-09-12T14:29:30;6.07;;;3.97;;
53108;SDS011;39007;53.090;6.074;2023-09-12T14:31:56;7.97;;;4.35;;
53108;SDS011;39007;53.090;6.074;2023-09-12T14:34:25;10.85;;;4.60;;
53108;SDS011;39007;53.090;6.074;2023-09-12T14:36:55;8.30;;;4.32;;
53108;SDS011;39007;53.090;6.074;2023-09-12T14:39:21;8.07;;;4.38;;